Ghent, WV (25843)

6:43 PM EDT on July 29, 2016 (GMT -0400)
Flat Top Lake | | Change Station

Elev 2969 ft 37.62 °N, 81.09 °W | Updated 13 minutes ago

Light Rain
Light Rain Mist
73.0 °F
Feels Like 70 °F
N
1.7
Wind Variable Wind from SW

Today
High -- | Low -- °F
--% Chance of Precip.
Yesterday
High -- | Low -- °F
Precip. -- in
Pressure 30.05 in
Visibility 6.0 miles
Clouds Overcast 6000 ft
Heat Index 70 °F
Dew Point 70 °F
Humidity 91%
Rainfall 0.22 in
Snow Depth Not available.
6:26 AM 8:35 PM
Waning Crescent, 18% visible
SPECI KBKW 292234Z AUTO 00000KT 6SM -RA BR OVC060 22/20 A3005 RMK AO2 VIS 3/4 RWY19 P0009 T02170200 CHINO RWY19 $
Pressure 30.05 in
Visibility 6.0 miles
Clouds Overcast 6000 ft
Heat Index 70 °F
Dew Point 70 °F
Humidity 91%
Rainfall 0.22 in
Snow Depth Not available.
6:26 AM 8:35 PM
Waning Crescent, 18% visible
SPECI KBKW 292234Z AUTO 00000KT 6SM -RA BR OVC060 22/20 A3005 RMK AO2 VIS 3/4 RWY19 P0009 T02170200 CHINO RWY19 $

10-Day Weather Forecast

Almanac

Astronomy

Jul. 29, 2016 Rise Set
Actual Time
Civil Twilight
Nautical Twilight
Astronomical Twilight
Moon
Length of Visible Light
Length of Day
Tomorrow will be .
, % of the Moon is Illuminated

Today's Extremes

State Highs State Lows

Community

WunderPhotos

Upload Photos

1,928,436 photos uploaded!

WunderBlog® & News

Nearby

Air Quality

  Air Quality AQ Index Pollutant
Not available.

Snow Depth

Station Depth Elevation

Earthquake Activity

City Distance Mag. Time & Date
Minimum magnitude displayed is 2.5.

Coastal Water Temperatures

Place Temperature

Stations

Nearby Weather Stations

Station Location Temp. Windchill Dew Point Humidity Wind Precip. Elev Updated Type
                   

Watches & Warnings

There are currently no watches in effect.